Eastern Wv Regional Shepherd Field
KMRB : rendu visible

Aérodrome :











RETROUVEZ-NOUS SUR...

 
LOGIN :

S'inscrire | Disclaimer

   EN    FR    IT 

 









Légende :    VFR   VFR Marginal   IFR   IFR Intensif   IFR Très Intensif
Visi : 
Plafond : 
>= 8 km
>= 3000ft
5 à 8 km
1000 à 3000 ft
1500m à 5 km
500 à 1000 ft
800 à 1500m
200 à 500 ft
< 800m
< 200 ft
Symboles :   Orages  Brouillard  Fortes neiges  Fortes précipitations  Vent > 20 kt






- Altitude de l'aérodrome : 565 ft


KMRB - Eastern Wv Regional Shepherd Field

DERNIER METAR :
  • 082153Z 15010KT 10SM FEW050 32/19 A2990 RMK AO2 SLP119 T03220194

METARs EXPIRÉS :
  • 082053Z 14007KT 10SM FEW050 SCT060 32/20 A2991 RMK AO2 SLP122 T03220200 56019

TAF KMRB
Valide du 08 à 21h jusqu'au 09 à 18h UTC


082058Z 0821/0918 14008KT P6SM VCTS SCT050CB SCT130
FM082300 VRB03KT P6SM SCT050 SCT130
FM090800 VRB03KT 3SM BR BKN025
FM091500 10006KT P6SM SCT050
FIR KZDC / Amérique du Nord



MET'MAP, la Météo Aéronautique d'un coup d'oeil ! - Copyright ORBIFLY Décembre 2007 - Disclaimer

ORBIFLY MET'MAP TEAM :

Programmation & Développement : Alexandra Zaïnal
Sur une idée originale de : Baudouin d'Aumeries
Assistance à la programmation : Marc-Olivier Méhu
Soutien technique & logistique : Manuel Goepfert

Contact : metmap@orbifly.com




SOURCES & CREDITS :

   NOAA       Earth
Advisory